sensor_id;sensor_type;location;lat;lon;timestamp;temperature;humidity
38221;DHT22;24023;51.280;7.148;2023-05-10T00:00:12;13.6;96.0
38221;DHT22;24023;51.280;7.148;2023-05-10T00:05:08;13.6;96.0
38221;DHT22;24023;51.280;7.148;2023-05-10T00:10:09;13.6;95.6
38221;DHT22;24023;51.280;7.148;2023-05-10T00:15:09;13.6;95.6
38221;DHT22;24023;51.280;7.148;2023-05-10T00:20:09;13.6;95.7
38221;DHT22;24023;51.280;7.148;2023-05-10T00:25:08;13.6;95.7
38221;DHT22;24023;51.280;7.148;2023-05-10T00:30:09;13.6;95.8
38221;DHT22;24023;51.280;7.148;2023-05-10T00:35:07;13.6;95.8
38221;DHT22;24023;51.280;7.148;2023-05-10T00:40:08;13.6;95.8
38221;DHT22;24023;51.280;7.148;2023-05-10T00:45:11;13.6;95.9
38221;DHT22;24023;51.280;7.148;2023-05-10T00:50:09;13.6;95.9
38221;DHT22;24023;51.280;7.148;2023-05-10T00:55:08;13.7;95.8
38221;DHT22;24023;51.280;7.148;2023-05-10T01:00:12;13.7;95.8
38221;DHT22;24023;51.280;7.148;2023-05-10T01:05:07;13.7;95.8
38221;DHT22;24023;51.280;7.148;2023-05-10T01:10:09;13.7;95.8
38221;DHT22;24023;51.280;7.148;2023-05-10T01:15:09;13.7;95.8
38221;DHT22;24023;51.280;7.148;2023-05-10T01:20:10;13.6;95.7
38221;DHT22;24023;51.280;7.148;2023-05-10T01:25:32;13.6;95.7
38221;DHT22;24023;51.280;7.148;2023-05-10T01:30:56;13.6;95.7
38221;DHT22;24023;51.280;7.148;2023-05-10T01:35:10;13.8;95.7
38221;DHT22;24023;51.280;7.148;2023-05-10T01:40:17;13.8;95.7
38221;DHT22;24023;51.280;7.148;2023-05-10T01:45:16;13.6;95.6
38221;DHT22;24023;51.280;7.148;2023-05-10T01:50:13;13.6;95.6
38221;DHT22;24023;51.280;7.148;2023-05-10T01:55:09;13.6;95.6
38221;DHT22;24023;51.280;7.148;2023-05-10T02:00:12;13.5;95.3
38221;DHT22;24023;51.280;7.148;2023-05-10T02:05:07;13.5;95.3
38221;DHT22;24023;51.280;7.148;2023-05-10T02:10:10;13.5;95.4
38221;DHT22;24023;51.280;7.148;2023-05-10T02:15:09;13.5;95.4
38221;DHT22;24023;51.280;7.148;2023-05-10T02:20:10;13.4;95.6
38221;DHT22;24023;51.280;7.148;2023-05-10T02:25:08;13.4;95.6
38221;DHT22;24023;51.280;7.148;2023-05-10T02:30:10;13.4;95.6
38221;DHT22;24023;51.280;7.148;2023-05-10T02:35:07;13.5;95.0
38221;DHT22;24023;51.280;7.148;2023-05-10T02:40:09;13.5;95.0
38221;DHT22;24023;51.280;7.148;2023-05-10T02:45:13;13.3;95.3
38221;DHT22;24023;51.280;7.148;2023-05-10T02:50:08;13.3;95.3
38221;DHT22;24023;51.280;7.148;2023-05-10T02:55:09;13.3;95.3
38221;DHT22;24023;51.280;7.148;2023-05-10T03:00:11;13.3;95.3
38221;DHT22;24023;51.280;7.148;2023-05-10T03:05:08;13.3;95.3
38221;DHT22;24023;51.280;7.148;2023-05-10T03:10:08;13.3;94.7
38221;DHT22;24023;51.280;7.148;2023-05-10T03:15:13;13.3;94.7
38221;DHT22;24023;51.280;7.148;2023-05-10T03:20:10;13.3;94.7
38221;DHT22;24023;51.280;7.148;2023-05-10T03:25:10;13.1;95.2
38221;DHT22;24023;51.280;7.148;2023-05-10T03:30:11;13.1;95.2
38221;DHT22;24023;51.280;7.148;2023-05-10T03:35:07;13.1;95.3
38221;DHT22;24023;51.280;7.148;2023-05-10T03:40:08;13.1;95.3
38221;DHT22;24023;51.280;7.148;2023-05-10T03:45:10;12.9;95.9
38221;DHT22;24023;51.280;7.148;2023-05-10T03:50:09;12.9;95.9
38221;DHT22;24023;51.280;7.148;2023-05-10T03:55:07;12.9;95.9
38221;DHT22;24023;51.280;7.148;2023-05-10T04:00:12;13.2;95.4
38221;DHT22;24023;51.280;7.148;2023-05-10T04:05:07;13.2;95.4
38221;DHT22;24023;51.280;7.148;2023-05-10T04:10:08;13.2;95.6
38221;DHT22;24023;51.280;7.148;2023-05-10T04:15:08;13.2;95.6
38221;DHT22;24023;51.280;7.148;2023-05-10T04:25:18;13.3;95.6
38221;DHT22;24023;51.280;7.148;2023-05-10T04:30:09;13.3;95.6
38221;DHT22;24023;51.280;7.148;2023-05-10T04:35:06;13.2;95.6
38221;DHT22;24023;51.280;7.148;2023-05-10T04:40:08;13.2;95.6
38221;DHT22;24023;51.280;7.148;2023-05-10T04:45:11;13.4;95.6
38221;DHT22;24023;51.280;7.148;2023-05-10T04:50:08;13.3;95.9
38221;DHT22;24023;51.280;7.148;2023-05-10T04:55:08;13.3;95.9
38221;DHT22;24023;51.280;7.148;2023-05-10T05:00:11;13.4;95.8
38221;DHT22;24023;51.280;7.148;2023-05-10T05:05:07;13.4;95.8
38221;DHT22;24023;51.280;7.148;2023-05-10T05:10:09;13.4;95.8
38221;DHT22;24023;51.280;7.148;2023-05-10T05:15:10;13.5;95.7
38221;DHT22;24023;51.280;7.148;2023-05-10T05:20:10;13.5;95.7
38221;DHT22;24023;51.280;7.148;2023-05-10T05:25:07;13.5;95.6
38221;DHT22;24023;51.280;7.148;2023-05-10T05:30:10;13.5;95.6
38221;DHT22;24023;51.280;7.148;2023-05-10T05:35:07;13.5;95.6
38221;DHT22;24023;51.280;7.148;2023-05-10T05:40:11;13.6;95.2
38221;DHT22;24023;51.280;7.148;2023-05-10T05:45:13;13.6;95.2
38221;DHT22;24023;51.280;7.148;2023-05-10T05:50:08;13.6;95.5
38221;DHT22;24023;51.280;7.148;2023-05-10T05:55:07;13.6;95.5
38221;DHT22;24023;51.280;7.148;2023-05-10T06:00:12;13.6;95.5
38221;DHT22;24023;51.280;7.148;2023-05-10T06:05:07;13.6;96.0
38221;DHT22;24023;51.280;7.148;2023-05-10T06:10:08;13.6;96.0
38221;DHT22;24023;51.280;7.148;2023-05-10T06:15:08;13.6;96.0
38221;DHT22;24023;51.280;7.148;2023-05-10T06:20:09;13.9;95.9
38221;DHT22;24023;51.280;7.148;2023-05-10T06:25:07;13.9;95.9
38221;DHT22;24023;51.280;7.148;2023-05-10T06:30:10;13.9;95.9
38221;DHT22;24023;51.280;7.148;2023-05-10T06:35:07;14.0;95.2
38221;DHT22;24023;51.280;7.148;2023-05-10T06:40:09;14.0;95.2
38221;DHT22;24023;51.280;7.148;2023-05-10T06:45:11;13.9;95.4
38221;DHT22;24023;51.280;7.148;2023-05-10T06:50:09;13.9;95.5
38221;DHT22;24023;51.280;7.148;2023-05-10T06:55:07;13.9;95.5
38221;DHT22;24023;51.280;7.148;2023-05-10T07:00:11;13.8;95.4
38221;DHT22;24023;51.280;7.148;2023-05-10T07:05:07;13.8;95.4
38221;DHT22;24023;51.280;7.148;2023-05-10T07:10:08;13.8;95.4
38221;DHT22;24023;51.280;7.148;2023-05-10T07:15:09;13.7;96.0
38221;DHT22;24023;51.280;7.148;2023-05-10T07:20:08;13.7;96.0
38221;DHT22;24023;51.280;7.148;2023-05-10T07:25:07;13.7;95.5
38221;DHT22;24023;51.280;7.148;2023-05-10T07:30:10;13.7;96.0
38221;DHT22;24023;51.280;7.148;2023-05-10T07:35:08;13.7;96.0
38221;DHT22;24023;51.280;7.148;2023-05-10T07:40:09;13.7;96.2
38221;DHT22;24023;51.280;7.148;2023-05-10T07:45:09;13.7;96.2
38221;DHT22;24023;51.280;7.148;2023-05-10T07:50:08;13.7;96.2
38221;DHT22;24023;51.280;7.148;2023-05-10T07:55:09;13.6;95.4
38221;DHT22;24023;51.280;7.148;2023-05-10T08:00:13;13.9;96.1
38221;DHT22;24023;51.280;7.148;2023-05-10T08:05:07;13.9;96.1
38221;DHT22;24023;51.280;7.148;2023-05-10T08:10:09;14.5;96.4
38221;DHT22;24023;51.280;7.148;2023-05-10T08:15:08;14.5;96.4
38221;DHT22;24023;51.280;7.148;2023-05-10T08:20:08;14.5;96.4
38221;DHT22;24023;51.280;7.148;2023-05-10T08:25:07;14.3;94.9
38221;DHT22;24023;51.280;7.148;2023-05-10T08:30:10;14.3;95.4
38221;DHT22;24023;51.280;7.148;2023-05-10T08:35:07;14.3;95.4
38221;DHT22;24023;51.280;7.148;2023-05-10T08:40:09;14.8;95.4
38221;DHT22;24023;51.280;7.148;2023-05-10T08:45:11;14.8;95.4
38221;DHT22;24023;51.280;7.148;2023-05-10T08:50:09;14.7;95.0
38221;DHT22;24023;51.280;7.148;2023-05-10T08:55:07;14.7;95.0
38221;DHT22;24023;51.280;7.148;2023-05-10T09:00:12;14.7;93.9
38221;DHT22;24023;51.280;7.148;2023-05-10T09:05:07;14.7;93.9
38221;DHT22;24023;51.280;7.148;2023-05-10T09:10:09;14.7;93.9
38221;DHT22;24023;51.280;7.148;2023-05-10T09:15:09;14.6;94.5
38221;DHT22;24023;51.280;7.148;2023-05-10T09:20:08;14.6;94.5
38221;DHT22;24023;51.280;7.148;2023-05-10T09:25:09;14.9;95.8
38221;DHT22;24023;51.280;7.148;2023-05-10T09:30:11;15.0;94.2
38221;DHT22;24023;51.280;7.148;2023-05-10T09:35:08;15.0;94.2
38221;DHT22;24023;51.280;7.148;2023-05-10T09:40:13;15.2;93.8
38221;DHT22;24023;51.280;7.148;2023-05-10T09:45:10;15.2;93.8
38221;DHT22;24023;51.280;7.148;2023-05-10T09:50:09;15.1;93.7
38221;DHT22;24023;51.280;7.148;2023-05-10T09:55:08;15.1;93.7
38221;DHT22;24023;51.280;7.148;2023-05-10T10:00:17;15.2;93.6
38221;DHT22;24023;51.280;7.148;2023-05-10T10:05:07;15.2;93.6
38221;DHT22;24023;51.280;7.148;2023-05-10T10:10:12;15.2;93.6
38221;DHT22;24023;51.280;7.148;2023-05-10T10:15:08;14.8;94.5
38221;DHT22;24023;51.280;7.148;2023-05-10T10:20:08;14.6;93.7
38221;DHT22;24023;51.280;7.148;2023-05-10T10:25:08;14.6;93.7
38221;DHT22;24023;51.280;7.148;2023-05-10T10:30:18;14.8;93.8
38221;DHT22;24023;51.280;7.148;2023-05-10T10:35:06;14.8;93.8
38221;DHT22;24023;51.280;7.148;2023-05-10T10:40:23;14.7;93.3
38221;DHT22;24023;51.280;7.148;2023-05-10T10:45:12;14.7;93.3
38221;DHT22;24023;51.280;7.148;2023-05-10T10:50:08;15.0;93.2
38221;DHT22;24023;51.280;7.148;2023-05-10T10:55:08;16.1;93.5
38221;DHT22;24023;51.280;7.148;2023-05-10T11:00:22;16.5;92.5
38221;DHT22;24023;51.280;7.148;2023-05-10T11:05:25;16.4;90.0
38221;DHT22;24023;51.280;7.148;2023-05-10T11:10:09;15.9;92.3
38221;DHT22;24023;51.280;7.148;2023-05-10T11:15:09;15.9;92.3
38221;DHT22;24023;51.280;7.148;2023-05-10T11:20:10;15.4;91.9
38221;DHT22;24023;51.280;7.148;2023-05-10T11:25:07;15.4;91.9
38221;DHT22;24023;51.280;7.148;2023-05-10T11:30:10;15.4;91.9
38221;DHT22;24023;51.280;7.148;2023-05-10T11:35:07;16.0;90.0
38221;DHT22;24023;51.280;7.148;2023-05-10T11:40:09;16.0;90.0
38221;DHT22;24023;51.280;7.148;2023-05-10T11:45:10;15.9;89.3
38221;DHT22;24023;51.280;7.148;2023-05-10T11:50:09;15.9;89.3
38221;DHT22;24023;51.280;7.148;2023-05-10T11:55:07;15.9;89.3
38221;DHT22;24023;51.280;7.148;2023-05-10T12:00:12;15.9;89.5
38221;DHT22;24023;51.280;7.148;2023-05-10T12:05:07;16.2;87.1
38221;DHT22;24023;51.280;7.148;2023-05-10T12:10:10;16.2;89.4
38221;DHT22;24023;51.280;7.148;2023-05-10T12:15:11;16.2;89.4
38221;DHT22;24023;51.280;7.148;2023-05-10T12:20:17;15.7;90.4
38221;DHT22;24023;51.280;7.148;2023-05-10T12:25:09;15.7;90.4
38221;DHT22;24023;51.280;7.148;2023-05-10T12:30:10;15.3;91.8
38221;DHT22;24023;51.280;7.148;2023-05-10T12:35:07;15.3;91.8
38221;DHT22;24023;51.280;7.148;2023-05-10T12:40:10;15.2;91.2
38221;DHT22;24023;51.280;7.148;2023-05-10T12:45:11;15.2;91.2
38221;DHT22;24023;51.280;7.148;2023-05-10T12:50:09;15.9;91.1
38221;DHT22;24023;51.280;7.148;2023-05-10T12:55:07;15.9;91.1
38221;DHT22;24023;51.280;7.148;2023-05-10T13:00:12;15.9;90.1
38221;DHT22;24023;51.280;7.148;2023-05-10T13:05:07;15.9;90.1
38221;DHT22;24023;51.280;7.148;2023-05-10T13:10:08;15.9;90.1
38221;DHT22;24023;51.280;7.148;2023-05-10T13:15:09;15.9;89.6
38221;DHT22;24023;51.280;7.148;2023-05-10T13:20:09;16.8;86.3
38221;DHT22;24023;51.280;7.148;2023-05-10T13:25:07;16.8;86.5
38221;DHT22;24023;51.280;7.148;2023-05-10T13:30:09;16.8;89.2
38221;DHT22;24023;51.280;7.148;2023-05-10T13:35:07;16.6;84.6
38221;DHT22;24023;51.280;7.148;2023-05-10T13:40:08;16.4;85.3
38221;DHT22;24023;51.280;7.148;2023-05-10T13:45:09;16.4;85.3
38221;DHT22;24023;51.280;7.148;2023-05-10T13:50:08;16.4;84.3
38221;DHT22;24023;51.280;7.148;2023-05-10T13:55:08;16.4;84.3
38221;DHT22;24023;51.280;7.148;2023-05-10T14:00:11;16.3;84.8
38221;DHT22;24023;51.280;7.148;2023-05-10T14:05:07;16.1;90.1
38221;DHT22;24023;51.280;7.148;2023-05-10T14:10:08;15.8;90.8
38221;DHT22;24023;51.280;7.148;2023-05-10T14:15:09;15.9;93.1
38221;DHT22;24023;51.280;7.148;2023-05-10T14:20:09;15.8;93.0
38221;DHT22;24023;51.280;7.148;2023-05-10T14:25:07;15.8;93.0
38221;DHT22;24023;51.280;7.148;2023-05-10T14:30:10;16.0;92.0
38221;DHT22;24023;51.280;7.148;2023-05-10T14:35:07;16.0;92.0
38221;DHT22;24023;51.280;7.148;2023-05-10T14:40:09;16.0;92.0
38221;DHT22;24023;51.280;7.148;2023-05-10T14:45:10;16.2;91.5
38221;DHT22;24023;51.280;7.148;2023-05-10T14:50:08;16.6;90.9
38221;DHT22;24023;51.280;7.148;2023-05-10T14:55:08;17.1;87.9
38221;DHT22;24023;51.280;7.148;2023-05-10T15:00:12;16.7;90.1
38221;DHT22;24023;51.280;7.148;2023-05-10T15:05:07;16.7;90.1
38221;DHT22;24023;51.280;7.148;2023-05-10T15:10:09;16.9;89.5
38221;DHT22;24023;51.280;7.148;2023-05-10T15:15:08;16.9;87.6
38221;DHT22;24023;51.280;7.148;2023-05-10T15:20:08;17.1;88.2
38221;DHT22;24023;51.280;7.148;2023-05-10T15:25:07;18.0;83.4
38221;DHT22;24023;51.280;7.148;2023-05-10T15:30:10;18.5;78.9
38221;DHT22;24023;51.280;7.148;2023-05-10T15:35:08;18.8;79.8
38221;DHT22;24023;51.280;7.148;2023-05-10T15:40:08;18.6;82.7
38221;DHT22;24023;51.280;7.148;2023-05-10T15:45:10;18.1;80.6
38221;DHT22;24023;51.280;7.148;2023-05-10T15:50:09;17.9;82.9
38221;DHT22;24023;51.280;7.148;2023-05-10T15:55:12;17.9;82.9
38221;DHT22;24023;51.280;7.148;2023-05-10T16:00:12;17.9;81.0
38221;DHT22;24023;51.280;7.148;2023-05-10T16:05:09;17.9;81.0
38221;DHT22;24023;51.280;7.148;2023-05-10T16:10:11;17.2;83.1
38221;DHT22;24023;51.280;7.148;2023-05-10T16:15:08;17.7;80.9
38221;DHT22;24023;51.280;7.148;2023-05-10T16:20:08;17.5;84.2
38221;DHT22;24023;51.280;7.148;2023-05-10T16:25:07;17.5;84.2
38221;DHT22;24023;51.280;7.148;2023-05-10T16:30:09;17.0;84.3
38221;DHT22;24023;51.280;7.148;2023-05-10T16:35:07;16.8;86.4
38221;DHT22;24023;51.280;7.148;2023-05-10T16:40:14;16.7;84.3
38221;DHT22;24023;51.280;7.148;2023-05-10T16:45:11;16.7;86.5
38221;DHT22;24023;51.280;7.148;2023-05-10T16:50:09;16.7;86.5
38221;DHT22;24023;51.280;7.148;2023-05-10T16:55:07;16.7;86.5
38221;DHT22;24023;51.280;7.148;2023-05-10T17:00:12;16.4;85.8
38221;DHT22;24023;51.280;7.148;2023-05-10T17:05:07;16.1;88.2
38221;DHT22;24023;51.280;7.148;2023-05-10T17:10:09;16.1;88.2
38221;DHT22;24023;51.280;7.148;2023-05-10T17:15:08;15.9;90.4
38221;DHT22;24023;51.280;7.148;2023-05-10T17:20:09;15.9;87.9
38221;DHT22;24023;51.280;7.148;2023-05-10T17:25:07;15.8;85.6
38221;DHT22;24023;51.280;7.148;2023-05-10T17:30:12;15.6;86.3
38221;DHT22;24023;51.280;7.148;2023-05-10T17:35:07;15.4;86.0
38221;DHT22;24023;51.280;7.148;2023-05-10T17:40:10;15.2;84.9
38221;DHT22;24023;51.280;7.148;2023-05-10T17:45:10;15.0;87.9
38221;DHT22;24023;51.280;7.148;2023-05-10T17:50:08;15.0;87.9
38221;DHT22;24023;51.280;7.148;2023-05-10T17:55:07;15.0;87.9
38221;DHT22;24023;51.280;7.148;2023-05-10T18:00:12;14.9;87.6
38221;DHT22;24023;51.280;7.148;2023-05-10T18:05:07;14.9;87.6
38221;DHT22;24023;51.280;7.148;2023-05-10T18:10:09;14.8;88.1
38221;DHT22;24023;51.280;7.148;2023-05-10T18:15:09;14.6;90.6
38221;DHT22;24023;51.280;7.148;2023-05-10T18:20:09;14.6;90.6
38221;DHT22;24023;51.280;7.148;2023-05-10T18:25:07;14.2;91.9
38221;DHT22;24023;51.280;7.148;2023-05-10T18:30:13;14.2;91.9
38221;DHT22;24023;51.280;7.148;2023-05-10T18:35:08;14.2;91.9
38221;DHT22;24023;51.280;7.148;2023-05-10T18:40:11;14.0;92.7
38221;DHT22;24023;51.280;7.148;2023-05-10T18:45:11;14.0;92.7
38221;DHT22;24023;51.280;7.148;2023-05-10T18:50:09;13.8;93.4
38221;DHT22;24023;51.280;7.148;2023-05-10T18:55:08;13.8;93.4
38221;DHT22;24023;51.280;7.148;2023-05-10T19:00:13;13.8;93.4
38221;DHT22;24023;51.280;7.148;2023-05-10T19:05:07;13.6;94.1
38221;DHT22;24023;51.280;7.148;2023-05-10T19:10:10;13.6;94.1
38221;DHT22;24023;51.280;7.148;2023-05-10T19:15:09;13.5;94.5
38221;DHT22;24023;51.280;7.148;2023-05-10T19:20:09;13.5;94.5
38221;DHT22;24023;51.280;7.148;2023-05-10T19:25:07;13.5;94.5
38221;DHT22;24023;51.280;7.148;2023-05-10T19:30:10;13.4;94.5
38221;DHT22;24023;51.280;7.148;2023-05-10T19:35:07;13.4;94.5
38221;DHT22;24023;51.280;7.148;2023-05-10T19:40:09;13.3;95.0
38221;DHT22;24023;51.280;7.148;2023-05-10T19:45:10;13.3;95.0
38221;DHT22;24023;51.280;7.148;2023-05-10T19:50:08;13.3;95.0
38221;DHT22;24023;51.280;7.148;2023-05-10T19:55:07;13.2;95.1
38221;DHT22;24023;51.280;7.148;2023-05-10T20:00:12;13.2;95.1
38221;DHT22;24023;51.280;7.148;2023-05-10T20:05:07;13.5;94.5
38221;DHT22;24023;51.280;7.148;2023-05-10T20:10:08;13.5;94.5
38221;DHT22;24023;51.280;7.148;2023-05-10T20:15:08;13.1;95.1
38221;DHT22;24023;51.280;7.148;2023-05-10T20:20:09;13.0;95.2
38221;DHT22;24023;51.280;7.148;2023-05-10T20:25:07;13.0;95.2
38221;DHT22;24023;51.280;7.148;2023-05-10T20:30:10;13.0;94.5
38221;DHT22;24023;51.280;7.148;2023-05-10T20:35:07;13.0;94.5
38221;DHT22;24023;51.280;7.148;2023-05-10T20:40:09;13.3;94.7
38221;DHT22;24023;51.280;7.148;2023-05-10T20:45:10;13.3;94.7
38221;DHT22;24023;51.280;7.148;2023-05-10T20:50:09;13.3;94.7
38221;DHT22;24023;51.280;7.148;2023-05-10T20:55:07;13.0;95.2
38221;DHT22;24023;51.280;7.148;2023-05-10T21:00:12;13.0;95.2
38221;DHT22;24023;51.280;7.148;2023-05-10T21:05:07;13.0;95.2
38221;DHT22;24023;51.280;7.148;2023-05-10T21:10:09;13.0;95.2
38221;DHT22;24023;51.280;7.148;2023-05-10T21:15:09;13.0;95.2
38221;DHT22;24023;51.280;7.148;2023-05-10T21:20:09;12.8;95.6
38221;DHT22;24023;51.280;7.148;2023-05-10T21:25:06;12.8;95.6
38221;DHT22;24023;51.280;7.148;2023-05-10T21:30:10;12.8;95.6
38221;DHT22;24023;51.280;7.148;2023-05-10T21:35:07;12.8;95.6
38221;DHT22;24023;51.280;7.148;2023-05-10T21:40:09;12.9;95.6
38221;DHT22;24023;51.280;7.148;2023-05-10T21:45:10;12.9;95.6
38221;DHT22;24023;51.280;7.148;2023-05-10T21:50:10;12.8;95.7
38221;DHT22;24023;51.280;7.148;2023-05-10T21:55:08;12.8;95.7
38221;DHT22;24023;51.280;7.148;2023-05-10T22:00:19;12.7;95.3
38221;DHT22;24023;51.280;7.148;2023-05-10T22:05:09;12.7;95.3
38221;DHT22;24023;51.280;7.148;2023-05-10T22:10:08;12.7;95.3
38221;DHT22;24023;51.280;7.148;2023-05-10T22:15:09;12.8;95.0
38221;DHT22;24023;51.280;7.148;2023-05-10T22:20:08;12.7;95.8
38221;DHT22;24023;51.280;7.148;2023-05-10T22:25:07;12.7;95.8
38221;DHT22;24023;51.280;7.148;2023-05-10T22:30:10;12.7;95.9
38221;DHT22;24023;51.280;7.148;2023-05-10T22:35:07;12.7;95.9
38221;DHT22;24023;51.280;7.148;2023-05-10T22:40:09;12.8;95.7
38221;DHT22;24023;51.280;7.148;2023-05-10T22:45:11;12.8;95.7
38221;DHT22;24023;51.280;7.148;2023-05-10T22:50:08;12.7;95.7
38221;DHT22;24023;51.280;7.148;2023-05-10T22:55:08;12.7;95.7
38221;DHT22;24023;51.280;7.148;2023-05-10T23:00:12;13.3;95.0
38221;DHT22;24023;51.280;7.148;2023-05-10T23:05:07;13.3;95.0
38221;DHT22;24023;51.280;7.148;2023-05-10T23:10:09;13.0;95.3
38221;DHT22;24023;51.280;7.148;2023-05-10T23:15:08;13.0;95.3
38221;DHT22;24023;51.280;7.148;2023-05-10T23:20:09;12.9;95.5
38221;DHT22;24023;51.280;7.148;2023-05-10T23:25:07;12.9;95.5
38221;DHT22;24023;51.280;7.148;2023-05-10T23:30:10;13.1;95.0
38221;DHT22;24023;51.280;7.148;2023-05-10T23:35:08;13.1;95.0
38221;DHT22;24023;51.280;7.148;2023-05-10T23:40:08;13.1;95.0
38221;DHT22;24023;51.280;7.148;2023-05-10T23:45:10;12.8;95.8
38221;DHT22;24023;51.280;7.148;2023-05-10T23:50:09;12.8;95.8
38221;DHT22;24023;51.280;7.148;2023-05-10T23:55:07;12.9;95.0
